sensor_id;sensor_type;location;lat;lon;timestamp;P1;durP1;ratioP1;P2;durP2;ratioP2
77105;SDS011;66057;54.718;18.426;2023-05-09T00:01:15;14.88;;;7.38;;
77105;SDS011;66057;54.718;18.426;2023-05-09T00:03:41;12.85;;;6.55;;
77105;SDS011;66057;54.718;18.426;2023-05-09T00:06:07;11.02;;;5.20;;
77105;SDS011;66057;54.718;18.426;2023-05-09T00:08:33;12.73;;;6.53;;
77105;SDS011;66057;54.718;18.426;2023-05-09T00:11:00;11.63;;;5.72;;
77105;SDS011;66057;54.718;18.426;2023-05-09T00:13:26;10.82;;;5.22;;
77105;SDS011;66057;54.718;18.426;2023-05-09T00:15:53;12.00;;;6.75;;
77105;SDS011;66057;54.718;18.426;2023-05-09T00:18:22;12.68;;;6.32;;
77105;SDS011;66057;54.718;18.426;2023-05-09T00:20:49;12.68;;;6.22;;
77105;SDS011;66057;54.718;18.426;2023-05-09T00:23:15;10.27;;;5.05;;
77105;SDS011;66057;54.718;18.426;2023-05-09T00:25:41;11.55;;;4.78;;
77105;SDS011;66057;54.718;18.426;2023-05-09T00:28:07;6.70;;;4.22;;
77105;SDS011;66057;54.718;18.426;2023-05-09T00:30:33;10.38;;;5.07;;
77105;SDS011;66057;54.718;18.426;2023-05-09T00:32:59;12.85;;;5.05;;
77105;SDS011;66057;54.718;18.426;2023-05-09T00:35:25;12.80;;;5.55;;
77105;SDS011;66057;54.718;18.426;2023-05-09T00:37:51;9.88;;;4.55;;
77105;SDS011;66057;54.718;18.426;2023-05-09T00:40:16;8.70;;;3.92;;
77105;SDS011;66057;54.718;18.426;2023-05-09T00:42:42;7.88;;;4.18;;
77105;SDS011;66057;54.718;18.426;2023-05-09T00:45:08;12.02;;;4.70;;
77105;SDS011;66057;54.718;18.426;2023-05-09T00:47:34;7.32;;;4.68;;
77105;SDS011;66057;54.718;18.426;2023-05-09T00:50:00;11.25;;;5.03;;
77105;SDS011;66057;54.718;18.426;2023-05-09T00:52:26;9.13;;;4.43;;
77105;SDS011;66057;54.718;18.426;2023-05-09T00:54:52;6.68;;;3.75;;
77105;SDS011;66057;54.718;18.426;2023-05-09T00:57:19;6.95;;;4.18;;
77105;SDS011;66057;54.718;18.426;2023-05-09T00:59:45;4.95;;;3.42;;
77105;SDS011;66057;54.718;18.426;2023-05-09T01:02:10;7.93;;;3.67;;
77105;SDS011;66057;54.718;18.426;2023-05-09T01:04:37;8.75;;;4.13;;
77105;SDS011;66057;54.718;18.426;2023-05-09T01:07:05;8.38;;;4.15;;
77105;SDS011;66057;54.718;18.426;2023-05-09T01:09:46;4.90;;;2.88;;
77105;SDS011;66057;54.718;18.426;2023-05-09T01:14:55;7.68;;;4.03;;
77105;SDS011;66057;54.718;18.426;2023-05-09T01:22:51;8.43;;;3.58;;
77105;SDS011;66057;54.718;18.426;2023-05-09T01:31:29;7.45;;;2.90;;
77105;SDS011;66057;54.718;18.426;2023-05-09T01:33:57;6.35;;;3.33;;
77105;SDS011;66057;54.718;18.426;2023-05-09T01:36:26;7.75;;;3.13;;
77105;SDS011;66057;54.718;18.426;2023-05-09T01:38:54;6.20;;;3.17;;
77105;SDS011;66057;54.718;18.426;2023-05-09T01:41:23;7.90;;;3.00;;
77105;SDS011;66057;54.718;18.426;2023-05-09T01:43:52;8.85;;;3.22;;
77105;SDS011;66057;54.718;18.426;2023-05-09T01:46:20;5.88;;;2.90;;
77105;SDS011;66057;54.718;18.426;2023-05-09T01:48:46;5.45;;;3.05;;
77105;SDS011;66057;54.718;18.426;2023-05-09T01:51:14;5.03;;;3.15;;
77105;SDS011;66057;54.718;18.426;2023-05-09T01:53:40;6.20;;;3.42;;
77105;SDS011;66057;54.718;18.426;2023-05-09T01:56:08;4.68;;;3.20;;
77105;SDS011;66057;54.718;18.426;2023-05-09T01:58:35;6.35;;;3.78;;
77105;SDS011;66057;54.718;18.426;2023-05-09T02:01:02;4.55;;;3.15;;
77105;SDS011;66057;54.718;18.426;2023-05-09T02:03:29;5.97;;;2.72;;
77105;SDS011;66057;54.718;18.426;2023-05-09T02:05:58;5.05;;;2.42;;
77105;SDS011;66057;54.718;18.426;2023-05-09T02:08:27;5.78;;;2.72;;
77105;SDS011;66057;54.718;18.426;2023-05-09T02:10:53;7.88;;;2.72;;
77105;SDS011;66057;54.718;18.426;2023-05-09T02:13:19;8.35;;;2.70;;
77105;SDS011;66057;54.718;18.426;2023-05-09T02:15:45;4.25;;;2.47;;
77105;SDS011;66057;54.718;18.426;2023-05-09T02:18:11;4.03;;;2.47;;
77105;SDS011;66057;54.718;18.426;2023-05-09T02:20:38;6.80;;;2.90;;
77105;SDS011;66057;54.718;18.426;2023-05-09T02:23:04;6.65;;;3.20;;
77105;SDS011;66057;54.718;18.426;2023-05-09T02:25:30;5.88;;;3.10;;
77105;SDS011;66057;54.718;18.426;2023-05-09T02:27:57;7.70;;;2.92;;
77105;SDS011;66057;54.718;18.426;2023-05-09T02:32:52;10.50;;;3.35;;
77105;SDS011;66057;54.718;18.426;2023-05-09T02:35:21;4.47;;;2.63;;
77105;SDS011;66057;54.718;18.426;2023-05-09T02:37:49;6.30;;;2.80;;
77105;SDS011;66057;54.718;18.426;2023-05-09T02:40:16;7.03;;;3.55;;
77105;SDS011;66057;54.718;18.426;2023-05-09T02:42:43;5.97;;;3.45;;
77105;SDS011;66057;54.718;18.426;2023-05-09T02:45:09;7.22;;;3.47;;
77105;SDS011;66057;54.718;18.426;2023-05-09T02:47:35;6.03;;;3.20;;
77105;SDS011;66057;54.718;18.426;2023-05-09T02:50:01;5.97;;;2.67;;
77105;SDS011;66057;54.718;18.426;2023-05-09T02:52:27;4.63;;;3.08;;
77105;SDS011;66057;54.718;18.426;2023-05-09T02:54:53;6.90;;;3.55;;
77105;SDS011;66057;54.718;18.426;2023-05-09T02:57:19;7.57;;;3.97;;
77105;SDS011;66057;54.718;18.426;2023-05-09T02:59:45;4.78;;;3.47;;
77105;SDS011;66057;54.718;18.426;2023-05-09T03:02:11;7.80;;;3.25;;
77105;SDS011;66057;54.718;18.426;2023-05-09T03:04:37;6.15;;;3.83;;
77105;SDS011;66057;54.718;18.426;2023-05-09T03:07:02;6.65;;;2.75;;
77105;SDS011;66057;54.718;18.426;2023-05-09T03:09:28;6.80;;;3.88;;
77105;SDS011;66057;54.718;18.426;2023-05-09T03:11:54;7.18;;;3.65;;
77105;SDS011;66057;54.718;18.426;2023-05-09T03:14:21;11.48;;;4.22;;
77105;SDS011;66057;54.718;18.426;2023-05-09T03:16:47;8.90;;;4.43;;
77105;SDS011;66057;54.718;18.426;2023-05-09T03:19:13;6.55;;;3.08;;
77105;SDS011;66057;54.718;18.426;2023-05-09T03:21:38;4.10;;;3.22;;
77105;SDS011;66057;54.718;18.426;2023-05-09T03:24:05;6.40;;;3.88;;
77105;SDS011;66057;54.718;18.426;2023-05-09T03:26:31;4.88;;;2.63;;
77105;SDS011;66057;54.718;18.426;2023-05-09T03:29:00;10.10;;;4.13;;
77105;SDS011;66057;54.718;18.426;2023-05-09T03:31:26;9.77;;;4.07;;
77105;SDS011;66057;54.718;18.426;2023-05-09T03:33:52;7.68;;;3.00;;
77105;SDS011;66057;54.718;18.426;2023-05-09T03:36:17;6.55;;;4.35;;
77105;SDS011;66057;54.718;18.426;2023-05-09T03:38:43;7.43;;;3.92;;
77105;SDS011;66057;54.718;18.426;2023-05-09T03:41:11;6.93;;;4.28;;
77105;SDS011;66057;54.718;18.426;2023-05-09T03:43:38;5.38;;;3.38;;
77105;SDS011;66057;54.718;18.426;2023-05-09T03:46:03;6.70;;;4.05;;
77105;SDS011;66057;54.718;18.426;2023-05-09T03:48:29;9.13;;;4.07;;
77105;SDS011;66057;54.718;18.426;2023-05-09T03:50:55;7.70;;;4.25;;
77105;SDS011;66057;54.718;18.426;2023-05-09T03:53:21;5.53;;;3.95;;
77105;SDS011;66057;54.718;18.426;2023-05-09T03:55:46;10.30;;;4.70;;
77105;SDS011;66057;54.718;18.426;2023-05-09T03:58:12;13.15;;;5.97;;
77105;SDS011;66057;54.718;18.426;2023-05-09T04:00:37;13.68;;;5.80;;
77105;SDS011;66057;54.718;18.426;2023-05-09T04:03:04;9.90;;;4.75;;
77105;SDS011;66057;54.718;18.426;2023-05-09T04:05:30;14.52;;;5.25;;
77105;SDS011;66057;54.718;18.426;2023-05-09T04:07:58;6.70;;;4.88;;
77105;SDS011;66057;54.718;18.426;2023-05-09T04:10:23;8.77;;;4.97;;
77105;SDS011;66057;54.718;18.426;2023-05-09T04:12:52;11.90;;;4.03;;
77105;SDS011;66057;54.718;18.426;2023-05-09T04:15:18;6.75;;;4.40;;
77105;SDS011;66057;54.718;18.426;2023-05-09T04:17:44;10.70;;;4.00;;
77105;SDS011;66057;54.718;18.426;2023-05-09T04:20:09;7.78;;;4.07;;
77105;SDS011;66057;54.718;18.426;2023-05-09T04:22:36;8.15;;;4.03;;
77105;SDS011;66057;54.718;18.426;2023-05-09T04:25:01;7.95;;;3.67;;
77105;SDS011;66057;54.718;18.426;2023-05-09T04:32:19;11.32;;;5.20;;
77105;SDS011;66057;54.718;18.426;2023-05-09T04:34:46;9.07;;;5.68;;
77105;SDS011;66057;54.718;18.426;2023-05-09T04:37:12;8.25;;;4.25;;
77105;SDS011;66057;54.718;18.426;2023-05-09T04:39:38;5.68;;;3.60;;
77105;SDS011;66057;54.718;18.426;2023-05-09T04:42:04;7.85;;;4.78;;
77105;SDS011;66057;54.718;18.426;2023-05-09T04:44:29;7.35;;;4.18;;
77105;SDS011;66057;54.718;18.426;2023-05-09T04:46:55;5.85;;;3.60;;
77105;SDS011;66057;54.718;18.426;2023-05-09T04:49:22;8.20;;;4.25;;
77105;SDS011;66057;54.718;18.426;2023-05-09T04:51:49;9.27;;;5.68;;
77105;SDS011;66057;54.718;18.426;2023-05-09T04:54:15;8.15;;;4.32;;
77105;SDS011;66057;54.718;18.426;2023-05-09T04:56:41;10.57;;;4.72;;
77105;SDS011;66057;54.718;18.426;2023-05-09T04:59:07;11.25;;;5.05;;
77105;SDS011;66057;54.718;18.426;2023-05-09T05:01:33;7.60;;;4.38;;
77105;SDS011;66057;54.718;18.426;2023-05-09T05:03:58;8.20;;;3.88;;
77105;SDS011;66057;54.718;18.426;2023-05-09T05:06:24;9.25;;;4.75;;
77105;SDS011;66057;54.718;18.426;2023-05-09T05:08:49;7.25;;;4.40;;
77105;SDS011;66057;54.718;18.426;2023-05-09T05:11:15;11.93;;;7.10;;
77105;SDS011;66057;54.718;18.426;2023-05-09T05:13:42;12.13;;;5.95;;
77105;SDS011;66057;54.718;18.426;2023-05-09T05:18:34;8.23;;;5.30;;
77105;SDS011;66057;54.718;18.426;2023-05-09T05:21:00;8.57;;;4.90;;
77105;SDS011;66057;54.718;18.426;2023-05-09T05:23:25;14.98;;;5.60;;
77105;SDS011;66057;54.718;18.426;2023-05-09T05:25:51;9.30;;;5.32;;
77105;SDS011;66057;54.718;18.426;2023-05-09T05:28:17;11.43;;;5.03;;
77105;SDS011;66057;54.718;18.426;2023-05-09T05:30:43;10.95;;;5.50;;
77105;SDS011;66057;54.718;18.426;2023-05-09T05:33:08;11.38;;;5.32;;
77105;SDS011;66057;54.718;18.426;2023-05-09T05:35:34;8.60;;;5.85;;
77105;SDS011;66057;54.718;18.426;2023-05-09T05:38:00;7.97;;;4.68;;
77105;SDS011;66057;54.718;18.426;2023-05-09T05:40:26;10.90;;;5.40;;
77105;SDS011;66057;54.718;18.426;2023-05-09T05:42:52;11.35;;;5.30;;
77105;SDS011;66057;54.718;18.426;2023-05-09T05:45:18;12.32;;;5.47;;
77105;SDS011;66057;54.718;18.426;2023-05-09T05:47:44;8.25;;;4.85;;
77105;SDS011;66057;54.718;18.426;2023-05-09T05:50:10;12.15;;;5.63;;
77105;SDS011;66057;54.718;18.426;2023-05-09T05:52:36;12.50;;;5.47;;
77105;SDS011;66057;54.718;18.426;2023-05-09T05:55:03;8.65;;;5.80;;
77105;SDS011;66057;54.718;18.426;2023-05-09T05:57:29;12.15;;;6.15;;
77105;SDS011;66057;54.718;18.426;2023-05-09T05:59:55;13.77;;;6.00;;
77105;SDS011;66057;54.718;18.426;2023-05-09T06:02:20;9.95;;;4.90;;
77105;SDS011;66057;54.718;18.426;2023-05-09T06:04:46;9.43;;;4.70;;
77105;SDS011;66057;54.718;18.426;2023-05-09T06:07:12;16.88;;;4.93;;
77105;SDS011;66057;54.718;18.426;2023-05-09T06:09:38;7.13;;;3.95;;
77105;SDS011;66057;54.718;18.426;2023-05-09T06:12:04;10.60;;;4.45;;
77105;SDS011;66057;54.718;18.426;2023-05-09T06:14:31;7.20;;;4.75;;
77105;SDS011;66057;54.718;18.426;2023-05-09T06:16:57;8.00;;;4.18;;
77105;SDS011;66057;54.718;18.426;2023-05-09T06:19:23;7.60;;;4.78;;
77105;SDS011;66057;54.718;18.426;2023-05-09T06:21:48;9.80;;;5.60;;
77105;SDS011;66057;54.718;18.426;2023-05-09T06:24:14;11.43;;;6.22;;
77105;SDS011;66057;54.718;18.426;2023-05-09T06:26:40;14.32;;;7.13;;
77105;SDS011;66057;54.718;18.426;2023-05-09T06:29:06;21.88;;;8.48;;
77105;SDS011;66057;54.718;18.426;2023-05-09T06:31:32;16.08;;;8.35;;
77105;SDS011;66057;54.718;18.426;2023-05-09T06:34:05;18.92;;;9.70;;
77105;SDS011;66057;54.718;18.426;2023-05-09T06:36:31;25.55;;;10.40;;
77105;SDS011;66057;54.718;18.426;2023-05-09T06:38:58;19.15;;;9.65;;
77105;SDS011;66057;54.718;18.426;2023-05-09T06:41:24;22.30;;;10.07;;
77105;SDS011;66057;54.718;18.426;2023-05-09T06:43:50;20.05;;;9.07;;
77105;SDS011;66057;54.718;18.426;2023-05-09T06:46:16;16.85;;;7.50;;
77105;SDS011;66057;54.718;18.426;2023-05-09T06:48:43;14.15;;;6.72;;
77105;SDS011;66057;54.718;18.426;2023-05-09T06:51:08;12.65;;;6.80;;
77105;SDS011;66057;54.718;18.426;2023-05-09T06:53:36;11.75;;;6.85;;
77105;SDS011;66057;54.718;18.426;2023-05-09T06:56:02;16.83;;;7.82;;
77105;SDS011;66057;54.718;18.426;2023-05-09T06:58:28;12.18;;;5.72;;
77105;SDS011;66057;54.718;18.426;2023-05-09T07:00:54;17.35;;;6.68;;
77105;SDS011;66057;54.718;18.426;2023-05-09T07:05:46;9.73;;;6.10;;
77105;SDS011;66057;54.718;18.426;2023-05-09T07:08:12;13.60;;;6.25;;
77105;SDS011;66057;54.718;18.426;2023-05-09T07:10:37;11.48;;;6.28;;
77105;SDS011;66057;54.718;18.426;2023-05-09T07:13:03;12.82;;;7.20;;
77105;SDS011;66057;54.718;18.426;2023-05-09T07:15:29;13.40;;;6.63;;
77105;SDS011;66057;54.718;18.426;2023-05-09T07:17:55;10.68;;;6.05;;
77105;SDS011;66057;54.718;18.426;2023-05-09T07:20:21;13.52;;;6.28;;
77105;SDS011;66057;54.718;18.426;2023-05-09T07:22:46;13.88;;;6.57;;
77105;SDS011;66057;54.718;18.426;2023-05-09T07:25:12;13.25;;;7.47;;
77105;SDS011;66057;54.718;18.426;2023-05-09T07:27:38;13.98;;;7.00;;
77105;SDS011;66057;54.718;18.426;2023-05-09T07:30:04;14.90;;;7.70;;
77105;SDS011;66057;54.718;18.426;2023-05-09T07:32:30;11.68;;;6.72;;
77105;SDS011;66057;54.718;18.426;2023-05-09T07:34:56;15.48;;;7.07;;
77105;SDS011;66057;54.718;18.426;2023-05-09T07:37:22;12.32;;;5.93;;
77105;SDS011;66057;54.718;18.426;2023-05-09T07:39:47;11.23;;;6.63;;
77105;SDS011;66057;54.718;18.426;2023-05-09T07:42:13;11.52;;;5.38;;
77105;SDS011;66057;54.718;18.426;2023-05-09T07:44:40;11.30;;;5.85;;
77105;SDS011;66057;54.718;18.426;2023-05-09T07:47:06;12.95;;;6.50;;
77105;SDS011;66057;54.718;18.426;2023-05-09T07:49:33;11.27;;;6.65;;
77105;SDS011;66057;54.718;18.426;2023-05-09T07:51:59;13.95;;;5.97;;
77105;SDS011;66057;54.718;18.426;2023-05-09T07:54:24;10.20;;;5.72;;
77105;SDS011;66057;54.718;18.426;2023-05-09T07:56:50;9.48;;;5.30;;
77105;SDS011;66057;54.718;18.426;2023-05-09T07:59:16;11.80;;;5.50;;
77105;SDS011;66057;54.718;18.426;2023-05-09T08:01:43;10.32;;;5.97;;
77105;SDS011;66057;54.718;18.426;2023-05-09T08:04:08;11.75;;;6.22;;
77105;SDS011;66057;54.718;18.426;2023-05-09T08:06:34;9.65;;;6.03;;
77105;SDS011;66057;54.718;18.426;2023-05-09T08:09:00;10.70;;;5.90;;
77105;SDS011;66057;54.718;18.426;2023-05-09T08:11:26;10.60;;;7.00;;
77105;SDS011;66057;54.718;18.426;2023-05-09T08:13:52;11.60;;;6.90;;
77105;SDS011;66057;54.718;18.426;2023-05-09T08:16:18;13.48;;;5.85;;
77105;SDS011;66057;54.718;18.426;2023-05-09T08:18:44;12.52;;;6.50;;
77105;SDS011;66057;54.718;18.426;2023-05-09T08:21:10;9.32;;;5.53;;
77105;SDS011;66057;54.718;18.426;2023-05-09T08:23:36;10.75;;;5.22;;
77105;SDS011;66057;54.718;18.426;2023-05-09T08:26:02;12.10;;;4.78;;
77105;SDS011;66057;54.718;18.426;2023-05-09T08:28:27;10.25;;;5.28;;
77105;SDS011;66057;54.718;18.426;2023-05-09T08:30:54;11.10;;;5.70;;
77105;SDS011;66057;54.718;18.426;2023-05-09T08:33:21;9.05;;;5.45;;
77105;SDS011;66057;54.718;18.426;2023-05-09T08:38:17;12.13;;;4.97;;
77105;SDS011;66057;54.718;18.426;2023-05-09T08:43:09;10.50;;;4.90;;
77105;SDS011;66057;54.718;18.426;2023-05-09T08:45:46;10.07;;;5.20;;
77105;SDS011;66057;54.718;18.426;2023-05-09T08:48:22;9.38;;;5.45;;
77105;SDS011;66057;54.718;18.426;2023-05-09T08:50:49;8.20;;;5.20;;
77105;SDS011;66057;54.718;18.426;2023-05-09T08:53:15;9.20;;;5.18;;
77105;SDS011;66057;54.718;18.426;2023-05-09T08:55:41;7.82;;;4.97;;
77105;SDS011;66057;54.718;18.426;2023-05-09T08:58:07;9.75;;;5.15;;
77105;SDS011;66057;54.718;18.426;2023-05-09T09:00:34;11.40;;;5.90;;
77105;SDS011;66057;54.718;18.426;2023-05-09T09:03:02;13.68;;;5.50;;
77105;SDS011;66057;54.718;18.426;2023-05-09T09:05:31;10.93;;;5.25;;
77105;SDS011;66057;54.718;18.426;2023-05-09T09:08:00;10.65;;;5.13;;
77105;SDS011;66057;54.718;18.426;2023-05-09T09:10:28;8.25;;;4.65;;
77105;SDS011;66057;54.718;18.426;2023-05-09T09:12:56;10.85;;;5.47;;
77105;SDS011;66057;54.718;18.426;2023-05-09T09:15:25;7.25;;;5.25;;
77105;SDS011;66057;54.718;18.426;2023-05-09T09:17:54;11.60;;;4.45;;
77105;SDS011;66057;54.718;18.426;2023-05-09T09:20:23;8.15;;;3.78;;
77105;SDS011;66057;54.718;18.426;2023-05-09T09:22:53;12.20;;;4.47;;
77105;SDS011;66057;54.718;18.426;2023-05-09T09:25:26;13.43;;;4.55;;
77105;SDS011;66057;54.718;18.426;2023-05-09T09:27:51;9.85;;;4.10;;
77105;SDS011;66057;54.718;18.426;2023-05-09T09:30:17;8.10;;;4.22;;
77105;SDS011;66057;54.718;18.426;2023-05-09T09:32:43;10.02;;;4.57;;
77105;SDS011;66057;54.718;18.426;2023-05-09T09:35:10;13.95;;;4.88;;
77105;SDS011;66057;54.718;18.426;2023-05-09T09:37:36;9.20;;;4.57;;
77105;SDS011;66057;54.718;18.426;2023-05-09T09:40:08;11.60;;;4.82;;
77105;SDS011;66057;54.718;18.426;2023-05-09T09:42:42;10.48;;;4.85;;
77105;SDS011;66057;54.718;18.426;2023-05-09T09:45:10;9.68;;;4.90;;
77105;SDS011;66057;54.718;18.426;2023-05-09T09:47:36;12.05;;;5.60;;
77105;SDS011;66057;54.718;18.426;2023-05-09T09:50:09;11.60;;;5.07;;
77105;SDS011;66057;54.718;18.426;2023-05-09T09:52:49;10.65;;;4.57;;
77105;SDS011;66057;54.718;18.426;2023-05-09T09:55:23;13.10;;;4.60;;
77105;SDS011;66057;54.718;18.426;2023-05-09T09:57:49;12.45;;;5.53;;
77105;SDS011;66057;54.718;18.426;2023-05-09T10:00:16;10.38;;;4.88;;
77105;SDS011;66057;54.718;18.426;2023-05-09T10:02:47;10.88;;;4.47;;
77105;SDS011;66057;54.718;18.426;2023-05-09T10:05:18;11.55;;;5.13;;
77105;SDS011;66057;54.718;18.426;2023-05-09T10:07:53;11.40;;;5.18;;
77105;SDS011;66057;54.718;18.426;2023-05-09T10:10:30;10.82;;;4.75;;
77105;SDS011;66057;54.718;18.426;2023-05-09T10:13:00;12.30;;;4.30;;
77105;SDS011;66057;54.718;18.426;2023-05-09T10:15:31;9.65;;;4.38;;
77105;SDS011;66057;54.718;18.426;2023-05-09T10:18:00;11.63;;;5.13;;
77105;SDS011;66057;54.718;18.426;2023-05-09T10:20:29;14.05;;;4.85;;
77105;SDS011;66057;54.718;18.426;2023-05-09T10:22:57;10.07;;;4.80;;
77105;SDS011;66057;54.718;18.426;2023-05-09T10:25:36;8.88;;;4.68;;
77105;SDS011;66057;54.718;18.426;2023-05-09T10:30:35;16.30;;;5.07;;
77105;SDS011;66057;54.718;18.426;2023-05-09T10:33:07;11.77;;;4.75;;
77105;SDS011;66057;54.718;18.426;2023-05-09T10:35:36;10.73;;;4.35;;
77105;SDS011;66057;54.718;18.426;2023-05-09T10:38:05;8.13;;;4.57;;
77105;SDS011;66057;54.718;18.426;2023-05-09T10:40:32;17.33;;;5.72;;
77105;SDS011;66057;54.718;18.426;2023-05-09T10:42:58;11.02;;;4.93;;
77105;SDS011;66057;54.718;18.426;2023-05-09T10:45:24;8.90;;;5.40;;
77105;SDS011;66057;54.718;18.426;2023-05-09T10:47:51;12.73;;;6.20;;
77105;SDS011;66057;54.718;18.426;2023-05-09T10:50:20;14.02;;;5.85;;
77105;SDS011;66057;54.718;18.426;2023-05-09T10:53:03;9.77;;;5.10;;
77105;SDS011;66057;54.718;18.426;2023-05-09T10:58:29;10.98;;;4.90;;
77105;SDS011;66057;54.718;18.426;2023-05-09T11:01:05;11.60;;;5.43;;
77105;SDS011;66057;54.718;18.426;2023-05-09T11:09:22;11.80;;;5.10;;
77105;SDS011;66057;54.718;18.426;2023-05-09T11:11:51;11.13;;;5.57;;
77105;SDS011;66057;54.718;18.426;2023-05-09T11:14:30;13.23;;;4.90;;
77105;SDS011;66057;54.718;18.426;2023-05-09T11:17:03;10.27;;;4.32;;
77105;SDS011;66057;54.718;18.426;2023-05-09T11:19:34;9.10;;;5.20;;
77105;SDS011;66057;54.718;18.426;2023-05-09T11:22:03;10.07;;;5.40;;
77105;SDS011;66057;54.718;18.426;2023-05-09T11:24:45;9.30;;;4.25;;
77105;SDS011;66057;54.718;18.426;2023-05-09T11:27:15;8.05;;;3.58;;
77105;SDS011;66057;54.718;18.426;2023-05-09T11:29:50;5.93;;;4.03;;
77105;SDS011;66057;54.718;18.426;2023-05-09T11:32:17;6.90;;;3.55;;
77105;SDS011;66057;54.718;18.426;2023-05-09T11:34:44;5.88;;;2.88;;
77105;SDS011;66057;54.718;18.426;2023-05-09T11:37:15;6.97;;;3.17;;
77105;SDS011;66057;54.718;18.426;2023-05-09T11:39:54;7.57;;;3.55;;
77105;SDS011;66057;54.718;18.426;2023-05-09T11:42:28;6.90;;;2.78;;
77105;SDS011;66057;54.718;18.426;2023-05-09T11:44:54;5.80;;;3.00;;
77105;SDS011;66057;54.718;18.426;2023-05-09T11:47:21;7.03;;;2.70;;
77105;SDS011;66057;54.718;18.426;2023-05-09T11:49:47;9.02;;;3.85;;
77105;SDS011;66057;54.718;18.426;2023-05-09T11:52:15;7.88;;;3.67;;
77105;SDS011;66057;54.718;18.426;2023-05-09T11:54:41;6.93;;;3.88;;
77105;SDS011;66057;54.718;18.426;2023-05-09T11:57:07;8.95;;;3.55;;
77105;SDS011;66057;54.718;18.426;2023-05-09T11:59:33;7.00;;;3.58;;
77105;SDS011;66057;54.718;18.426;2023-05-09T12:02:05;6.13;;;3.28;;
77105;SDS011;66057;54.718;18.426;2023-05-09T12:04:33;10.18;;;3.55;;
77105;SDS011;66057;54.718;18.426;2023-05-09T12:07:00;6.70;;;3.40;;
77105;SDS011;66057;54.718;18.426;2023-05-09T12:09:30;7.32;;;3.80;;
77105;SDS011;66057;54.718;18.426;2023-05-09T12:12:11;9.60;;;4.18;;
77105;SDS011;66057;54.718;18.426;2023-05-09T12:14:38;7.45;;;3.42;;
77105;SDS011;66057;54.718;18.426;2023-05-09T12:17:07;8.23;;;3.33;;
77105;SDS011;66057;54.718;18.426;2023-05-09T12:19:34;8.98;;;3.42;;
77105;SDS011;66057;54.718;18.426;2023-05-09T12:22:02;7.32;;;3.42;;
77105;SDS011;66057;54.718;18.426;2023-05-09T12:24:29;8.65;;;3.42;;
77105;SDS011;66057;54.718;18.426;2023-05-09T12:26:56;7.40;;;3.13;;
77105;SDS011;66057;54.718;18.426;2023-05-09T12:29:23;5.57;;;3.13;;
77105;SDS011;66057;54.718;18.426;2023-05-09T12:31:53;5.82;;;3.00;;
77105;SDS011;66057;54.718;18.426;2023-05-09T12:34:19;5.70;;;3.58;;
77105;SDS011;66057;54.718;18.426;2023-05-09T12:36:46;9.55;;;3.88;;
77105;SDS011;66057;54.718;18.426;2023-05-09T12:39:18;9.38;;;3.67;;
77105;SDS011;66057;54.718;18.426;2023-05-09T12:41:49;8.68;;;3.78;;
77105;SDS011;66057;54.718;18.426;2023-05-09T12:44:24;8.32;;;3.90;;
77105;SDS011;66057;54.718;18.426;2023-05-09T12:46:51;7.32;;;3.85;;
77105;SDS011;66057;54.718;18.426;2023-05-09T12:49:19;9.98;;;4.03;;
77105;SDS011;66057;54.718;18.426;2023-05-09T12:51:47;7.45;;;3.58;;
77105;SDS011;66057;54.718;18.426;2023-05-09T12:54:18;8.60;;;4.10;;
77105;SDS011;66057;54.718;18.426;2023-05-09T12:56:46;9.27;;;4.80;;
77105;SDS011;66057;54.718;18.426;2023-05-09T12:59:12;7.32;;;3.85;;
77105;SDS011;66057;54.718;18.426;2023-05-09T13:01:40;11.65;;;4.10;;
77105;SDS011;66057;54.718;18.426;2023-05-09T13:04:05;10.48;;;4.70;;
77105;SDS011;66057;54.718;18.426;2023-05-09T13:06:32;8.40;;;4.63;;
77105;SDS011;66057;54.718;18.426;2023-05-09T13:09:00;8.90;;;5.13;;
77105;SDS011;66057;54.718;18.426;2023-05-09T13:11:27;8.73;;;4.45;;
77105;SDS011;66057;54.718;18.426;2023-05-09T13:13:55;6.82;;;4.13;;
77105;SDS011;66057;54.718;18.426;2023-05-09T13:16:20;7.25;;;4.05;;
77105;SDS011;66057;54.718;18.426;2023-05-09T13:18:46;5.95;;;4.25;;
77105;SDS011;66057;54.718;18.426;2023-05-09T13:21:12;11.43;;;4.10;;
77105;SDS011;66057;54.718;18.426;2023-05-09T13:23:37;6.85;;;3.53;;
77105;SDS011;66057;54.718;18.426;2023-05-09T13:26:03;6.30;;;3.97;;
77105;SDS011;66057;54.718;18.426;2023-05-09T13:28:28;6.38;;;3.72;;
77105;SDS011;66057;54.718;18.426;2023-05-09T13:30:54;9.05;;;4.43;;
77105;SDS011;66057;54.718;18.426;2023-05-09T13:33:20;6.50;;;4.25;;
77105;SDS011;66057;54.718;18.426;2023-05-09T13:35:46;7.80;;;4.47;;
77105;SDS011;66057;54.718;18.426;2023-05-09T13:38:11;9.15;;;3.92;;
77105;SDS011;66057;54.718;18.426;2023-05-09T13:40:37;7.05;;;3.67;;
77105;SDS011;66057;54.718;18.426;2023-05-09T13:43:03;6.00;;;4.03;;
77105;SDS011;66057;54.718;18.426;2023-05-09T13:47:54;6.68;;;4.45;;
77105;SDS011;66057;54.718;18.426;2023-05-09T13:50:20;7.20;;;4.50;;
77105;SDS011;66057;54.718;18.426;2023-05-09T13:52:46;8.50;;;4.15;;
77105;SDS011;66057;54.718;18.426;2023-05-09T13:55:14;8.13;;;4.65;;
77105;SDS011;66057;54.718;18.426;2023-05-09T13:57:41;5.07;;;3.85;;
77105;SDS011;66057;54.718;18.426;2023-05-09T14:00:07;6.68;;;4.20;;
77105;SDS011;66057;54.718;18.426;2023-05-09T14:02:33;8.38;;;4.03;;
77105;SDS011;66057;54.718;18.426;2023-05-09T14:04:59;7.20;;;4.75;;
77105;SDS011;66057;54.718;18.426;2023-05-09T14:07:27;5.40;;;3.30;;
77105;SDS011;66057;54.718;18.426;2023-05-09T14:09:53;5.68;;;3.33;;
77105;SDS011;66057;54.718;18.426;2023-05-09T14:12:18;6.63;;;3.15;;
77105;SDS011;66057;54.718;18.426;2023-05-09T14:14:44;6.28;;;3.97;;
77105;SDS011;66057;54.718;18.426;2023-05-09T14:17:10;6.28;;;3.90;;
77105;SDS011;66057;54.718;18.426;2023-05-09T14:19:36;5.90;;;3.35;;
77105;SDS011;66057;54.718;18.426;2023-05-09T14:22:02;6.25;;;3.67;;
77105;SDS011;66057;54.718;18.426;2023-05-09T14:24:28;6.90;;;4.45;;
77105;SDS011;66057;54.718;18.426;2023-05-09T14:29:21;4.97;;;3.15;;
77105;SDS011;66057;54.718;18.426;2023-05-09T14:31:47;6.15;;;3.72;;
77105;SDS011;66057;54.718;18.426;2023-05-09T14:34:12;4.80;;;3.45;;
77105;SDS011;66057;54.718;18.426;2023-05-09T14:36:38;6.63;;;3.67;;
77105;SDS011;66057;54.718;18.426;2023-05-09T14:39:04;3.55;;;3.05;;
77105;SDS011;66057;54.718;18.426;2023-05-09T14:41:30;4.47;;;2.72;;
77105;SDS011;66057;54.718;18.426;2023-05-09T14:43:56;5.20;;;3.13;;
77105;SDS011;66057;54.718;18.426;2023-05-09T14:46:22;5.63;;;2.90;;
77105;SDS011;66057;54.718;18.426;2023-05-09T14:48:49;6.38;;;3.10;;
77105;SDS011;66057;54.718;18.426;2023-05-09T14:51:16;6.18;;;3.53;;
77105;SDS011;66057;54.718;18.426;2023-05-09T14:53:41;4.32;;;2.75;;
77105;SDS011;66057;54.718;18.426;2023-05-09T14:56:07;4.20;;;2.40;;
77105;SDS011;66057;54.718;18.426;2023-05-09T14:58:34;5.20;;;2.90;;
77105;SDS011;66057;54.718;18.426;2023-05-09T15:01:00;7.18;;;3.17;;
77105;SDS011;66057;54.718;18.426;2023-05-09T15:03:26;4.07;;;2.75;;
77105;SDS011;66057;54.718;18.426;2023-05-09T15:05:52;4.65;;;2.80;;
77105;SDS011;66057;54.718;18.426;2023-05-09T15:08:18;3.42;;;2.30;;
77105;SDS011;66057;54.718;18.426;2023-05-09T15:10:43;4.25;;;2.65;;
77105;SDS011;66057;54.718;18.426;2023-05-09T15:13:09;5.25;;;2.78;;
77105;SDS011;66057;54.718;18.426;2023-05-09T15:15:36;5.15;;;2.58;;